TAF PATA
AMD PATA 280833Z 2809/2906 22003KT 1 1/2SM -SN OVC030 FM282300 04003KT P6SM SCT030 SCT080=
METAR PATA
WC PATA
WS PATA
WV PATA